sensor_id;sensor_type;location;lat;lon;timestamp;P1;durP1;ratioP1;P2;durP2;ratioP2
27408;SDS011;20413;50.782;7.152;2023-02-28T00:01:03;11.95;;;6.45;;
27408;SDS011;20413;50.782;7.152;2023-02-28T00:03:29;10.38;;;5.72;;
27408;SDS011;20413;50.782;7.152;2023-02-28T00:05:55;13.98;;;5.97;;
27408;SDS011;20413;50.782;7.152;2023-02-28T00:08:21;11.82;;;6.22;;
27408;SDS011;20413;50.782;7.152;2023-02-28T00:10:47;13.77;;;6.25;;
27408;SDS011;20413;50.782;7.152;2023-02-28T00:13:13;8.35;;;5.68;;
27408;SDS011;20413;50.782;7.152;2023-02-28T00:15:39;14.55;;;7.18;;
27408;SDS011;20413;50.782;7.152;2023-02-28T00:18:05;11.25;;;6.15;;
27408;SDS011;20413;50.782;7.152;2023-02-28T00:20:31;12.88;;;6.05;;
27408;SDS011;20413;50.782;7.152;2023-02-28T00:22:57;15.93;;;6.30;;
27408;SDS011;20413;50.782;7.152;2023-02-28T00:25:24;16.98;;;6.43;;
27408;SDS011;20413;50.782;7.152;2023-02-28T00:27:50;13.38;;;5.95;;
27408;SDS011;20413;50.782;7.152;2023-02-28T00:30:20;9.82;;;5.30;;
27408;SDS011;20413;50.782;7.152;2023-02-28T00:32:47;12.30;;;4.72;;
27408;SDS011;20413;50.782;7.152;2023-02-28T00:35:13;9.40;;;5.13;;
27408;SDS011;20413;50.782;7.152;2023-02-28T00:37:39;8.93;;;4.53;;
27408;SDS011;20413;50.782;7.152;2023-02-28T00:40:05;8.70;;;4.60;;
27408;SDS011;20413;50.782;7.152;2023-02-28T00:42:32;10.52;;;4.13;;
27408;SDS011;20413;50.782;7.152;2023-02-28T00:44:59;7.90;;;4.10;;
27408;SDS011;20413;50.782;7.152;2023-02-28T00:47:25;6.65;;;3.70;;
27408;SDS011;20413;50.782;7.152;2023-02-28T00:49:51;7.78;;;3.40;;
27408;SDS011;20413;50.782;7.152;2023-02-28T00:52:17;8.35;;;3.47;;
27408;SDS011;20413;50.782;7.152;2023-02-28T00:54:43;5.40;;;3.42;;
27408;SDS011;20413;50.782;7.152;2023-02-28T00:57:09;4.50;;;3.20;;
27408;SDS011;20413;50.782;7.152;2023-02-28T00:59:35;6.05;;;3.10;;
27408;SDS011;20413;50.782;7.152;2023-02-28T01:02:01;7.32;;;3.40;;
27408;SDS011;20413;50.782;7.152;2023-02-28T01:04:27;8.13;;;3.92;;
27408;SDS011;20413;50.782;7.152;2023-02-28T01:06:53;7.25;;;3.40;;
27408;SDS011;20413;50.782;7.152;2023-02-28T01:09:19;6.68;;;3.60;;
27408;SDS011;20413;50.782;7.152;2023-02-28T01:11:45;4.97;;;3.20;;
27408;SDS011;20413;50.782;7.152;2023-02-28T01:14:15;8.52;;;3.63;;
27408;SDS011;20413;50.782;7.152;2023-02-28T01:16:41;5.10;;;3.10;;
27408;SDS011;20413;50.782;7.152;2023-02-28T01:19:07;5.53;;;3.17;;
27408;SDS011;20413;50.782;7.152;2023-02-28T01:21:34;9.07;;;3.40;;
27408;SDS011;20413;50.782;7.152;2023-02-28T01:24:00;5.90;;;3.28;;
27408;SDS011;20413;50.782;7.152;2023-02-28T01:26:26;6.80;;;3.42;;
27408;SDS011;20413;50.782;7.152;2023-02-28T01:28:53;7.20;;;3.20;;
27408;SDS011;20413;50.782;7.152;2023-02-28T01:31:19;5.30;;;2.60;;
27408;SDS011;20413;50.782;7.152;2023-02-28T01:33:45;7.05;;;3.35;;
27408;SDS011;20413;50.782;7.152;2023-02-28T01:36:22;3.28;;;2.85;;
27408;SDS011;20413;50.782;7.152;2023-02-28T01:38:48;5.38;;;3.05;;
27408;SDS011;20413;50.782;7.152;2023-02-28T01:41:20;4.88;;;2.80;;
27408;SDS011;20413;50.782;7.152;2023-02-28T01:46:13;4.43;;;2.80;;
27408;SDS011;20413;50.782;7.152;2023-02-28T01:48:50;3.63;;;2.47;;
27408;SDS011;20413;50.782;7.152;2023-02-28T01:51:19;4.55;;;3.38;;
27408;SDS011;20413;50.782;7.152;2023-02-28T01:53:51;9.13;;;3.63;;
27408;SDS011;20413;50.782;7.152;2023-02-28T01:56:18;6.35;;;3.40;;
27408;SDS011;20413;50.782;7.152;2023-02-28T01:58:47;8.32;;;3.60;;
27408;SDS011;20413;50.782;7.152;2023-02-28T02:01:14;5.88;;;4.07;;
27408;SDS011;20413;50.782;7.152;2023-02-28T02:03:46;5.85;;;3.45;;
27408;SDS011;20413;50.782;7.152;2023-02-28T02:06:12;5.10;;;3.38;;
27408;SDS011;20413;50.782;7.152;2023-02-28T02:08:38;7.13;;;3.67;;
27408;SDS011;20413;50.782;7.152;2023-02-28T02:11:04;6.75;;;3.75;;
27408;SDS011;20413;50.782;7.152;2023-02-28T02:13:56;4.93;;;3.42;;
27408;SDS011;20413;50.782;7.152;2023-02-28T02:22:00;5.38;;;3.30;;
27408;SDS011;20413;50.782;7.152;2023-02-28T02:35:24;6.75;;;3.88;;
27408;SDS011;20413;50.782;7.152;2023-02-28T02:40:25;5.45;;;3.47;;
27408;SDS011;20413;50.782;7.152;2023-02-28T02:42:55;8.73;;;3.50;;
27408;SDS011;20413;50.782;7.152;2023-02-28T02:47:48;5.93;;;3.30;;
27408;SDS011;20413;50.782;7.152;2023-02-28T02:50:22;5.55;;;3.22;;
27408;SDS011;20413;50.782;7.152;2023-02-28T02:52:51;5.15;;;3.42;;
27408;SDS011;20413;50.782;7.152;2023-02-28T02:55:18;4.93;;;3.25;;
27408;SDS011;20413;50.782;7.152;2023-02-28T02:57:54;6.15;;;4.00;;
27408;SDS011;20413;50.782;7.152;2023-02-28T03:00:23;6.82;;;4.05;;
27408;SDS011;20413;50.782;7.152;2023-02-28T03:02:50;6.82;;;4.07;;
27408;SDS011;20413;50.782;7.152;2023-02-28T03:05:23;8.98;;;3.80;;
27408;SDS011;20413;50.782;7.152;2023-02-28T03:07:50;7.78;;;4.15;;
27408;SDS011;20413;50.782;7.152;2023-02-28T03:18:15;6.50;;;5.80;;
27408;SDS011;20413;50.782;7.152;2023-02-28T03:21:03;8.70;;;6.10;;
27408;SDS011;20413;50.782;7.152;2023-02-28T03:26:06;9.20;;;6.03;;
27408;SDS011;20413;50.782;7.152;2023-02-28T03:28:37;8.45;;;5.25;;
27408;SDS011;20413;50.782;7.152;2023-02-28T03:33:51;8.25;;;4.85;;
27408;SDS011;20413;50.782;7.152;2023-02-28T03:36:21;6.22;;;5.22;;
27408;SDS011;20413;50.782;7.152;2023-02-28T03:38:53;7.85;;;4.88;;
27408;SDS011;20413;50.782;7.152;2023-02-28T03:41:22;6.95;;;5.03;;
27408;SDS011;20413;50.782;7.152;2023-02-28T03:43:55;6.07;;;4.00;;
27408;SDS011;20413;50.782;7.152;2023-02-28T03:46:22;5.60;;;3.90;;
27408;SDS011;20413;50.782;7.152;2023-02-28T03:48:54;6.45;;;4.10;;
27408;SDS011;20413;50.782;7.152;2023-02-28T03:51:22;7.28;;;3.75;;
27408;SDS011;20413;50.782;7.152;2023-02-28T03:53:57;6.40;;;3.53;;
27408;SDS011;20413;50.782;7.152;2023-02-28T03:56:27;7.53;;;3.63;;
27408;SDS011;20413;50.782;7.152;2023-02-28T03:59:17;4.15;;;3.40;;
27408;SDS011;20413;50.782;7.152;2023-02-28T04:01:44;4.22;;;3.08;;
27408;SDS011;20413;50.782;7.152;2023-02-28T04:04:11;3.13;;;2.42;;
27408;SDS011;20413;50.782;7.152;2023-02-28T04:06:38;3.97;;;3.20;;
27408;SDS011;20413;50.782;7.152;2023-02-28T04:09:05;5.65;;;3.50;;
27408;SDS011;20413;50.782;7.152;2023-02-28T04:13:57;4.50;;;3.65;;
27408;SDS011;20413;50.782;7.152;2023-02-28T04:16:23;8.65;;;3.85;;
27408;SDS011;20413;50.782;7.152;2023-02-28T04:18:49;5.68;;;3.53;;
27408;SDS011;20413;50.782;7.152;2023-02-28T04:21:15;5.90;;;3.55;;
27408;SDS011;20413;50.782;7.152;2023-02-28T04:23:45;6.10;;;3.42;;
27408;SDS011;20413;50.782;7.152;2023-02-28T04:26:11;4.78;;;3.42;;
27408;SDS011;20413;50.782;7.152;2023-02-28T04:28:38;4.13;;;2.97;;
27408;SDS011;20413;50.782;7.152;2023-02-28T04:31:04;9.40;;;3.60;;
27408;SDS011;20413;50.782;7.152;2023-02-28T04:33:31;4.80;;;3.58;;
27408;SDS011;20413;50.782;7.152;2023-02-28T04:36:01;4.45;;;2.58;;
27408;SDS011;20413;50.782;7.152;2023-02-28T04:38:28;5.53;;;3.08;;
27408;SDS011;20413;50.782;7.152;2023-02-28T04:40:56;4.60;;;3.10;;
27408;SDS011;20413;50.782;7.152;2023-02-28T04:43:22;6.30;;;3.15;;
27408;SDS011;20413;50.782;7.152;2023-02-28T04:45:48;4.65;;;3.17;;
27408;SDS011;20413;50.782;7.152;2023-02-28T04:48:14;4.07;;;3.30;;
27408;SDS011;20413;50.782;7.152;2023-02-28T04:50:40;5.93;;;3.50;;
27408;SDS011;20413;50.782;7.152;2023-02-28T04:53:06;5.13;;;3.08;;
27408;SDS011;20413;50.782;7.152;2023-02-28T04:55:32;4.25;;;2.92;;
27408;SDS011;20413;50.782;7.152;2023-02-28T04:57:58;5.38;;;3.28;;
27408;SDS011;20413;50.782;7.152;2023-02-28T05:00:24;4.18;;;3.00;;
27408;SDS011;20413;50.782;7.152;2023-02-28T05:02:50;4.72;;;3.28;;
27408;SDS011;20413;50.782;7.152;2023-02-28T05:05:16;3.45;;;3.15;;
27408;SDS011;20413;50.782;7.152;2023-02-28T05:07:43;3.85;;;3.05;;
27408;SDS011;20413;50.782;7.152;2023-02-28T05:10:10;5.53;;;4.03;;
27408;SDS011;20413;50.782;7.152;2023-02-28T05:12:36;5.15;;;3.58;;
27408;SDS011;20413;50.782;7.152;2023-02-28T05:15:03;8.88;;;4.72;;
27408;SDS011;20413;50.782;7.152;2023-02-28T05:17:30;10.65;;;4.68;;
27408;SDS011;20413;50.782;7.152;2023-02-28T05:19:56;4.28;;;3.88;;
27408;SDS011;20413;50.782;7.152;2023-02-28T05:22:22;5.28;;;4.00;;
27408;SDS011;20413;50.782;7.152;2023-02-28T05:24:48;4.45;;;3.83;;
27408;SDS011;20413;50.782;7.152;2023-02-28T05:27:14;5.15;;;3.65;;
27408;SDS011;20413;50.782;7.152;2023-02-28T05:29:40;5.82;;;3.78;;
27408;SDS011;20413;50.782;7.152;2023-02-28T05:32:11;4.45;;;3.65;;
27408;SDS011;20413;50.782;7.152;2023-02-28T05:34:37;5.70;;;3.85;;
27408;SDS011;20413;50.782;7.152;2023-02-28T05:37:04;5.88;;;3.53;;
27408;SDS011;20413;50.782;7.152;2023-02-28T05:39:30;4.85;;;3.80;;
27408;SDS011;20413;50.782;7.152;2023-02-28T05:41:56;4.40;;;3.40;;
27408;SDS011;20413;50.782;7.152;2023-02-28T05:44:22;4.63;;;3.63;;
27408;SDS011;20413;50.782;7.152;2023-02-28T05:46:48;5.20;;;3.38;;
27408;SDS011;20413;50.782;7.152;2023-02-28T05:49:14;5.68;;;3.50;;
27408;SDS011;20413;50.782;7.152;2023-02-28T05:51:40;4.75;;;3.35;;
27408;SDS011;20413;50.782;7.152;2023-02-28T05:54:06;4.88;;;3.80;;
27408;SDS011;20413;50.782;7.152;2023-02-28T05:56:32;5.22;;;3.40;;
27408;SDS011;20413;50.782;7.152;2023-02-28T05:59:04;5.80;;;3.65;;
27408;SDS011;20413;50.782;7.152;2023-02-28T06:01:31;5.05;;;3.20;;
27408;SDS011;20413;50.782;7.152;2023-02-28T06:03:58;4.55;;;3.03;;
27408;SDS011;20413;50.782;7.152;2023-02-28T06:06:24;5.72;;;2.65;;
27408;SDS011;20413;50.782;7.152;2023-02-28T06:08:50;5.63;;;3.90;;
27408;SDS011;20413;50.782;7.152;2023-02-28T06:11:17;4.80;;;3.85;;
27408;SDS011;20413;50.782;7.152;2023-02-28T06:16:10;5.85;;;3.60;;
27408;SDS011;20413;50.782;7.152;2023-02-28T06:18:37;6.90;;;3.45;;
27408;SDS011;20413;50.782;7.152;2023-02-28T06:21:03;6.05;;;3.53;;
27408;SDS011;20413;50.782;7.152;2023-02-28T06:23:29;6.85;;;4.47;;
27408;SDS011;20413;50.782;7.152;2023-02-28T06:25:55;8.70;;;3.90;;
27408;SDS011;20413;50.782;7.152;2023-02-28T06:28:25;5.97;;;3.97;;
27408;SDS011;20413;50.782;7.152;2023-02-28T06:30:51;5.22;;;3.60;;
27408;SDS011;20413;50.782;7.152;2023-02-28T06:33:17;7.15;;;3.80;;
27408;SDS011;20413;50.782;7.152;2023-02-28T06:35:44;5.63;;;3.80;;
27408;SDS011;20413;50.782;7.152;2023-02-28T06:38:10;5.20;;;3.92;;
27408;SDS011;20413;50.782;7.152;2023-02-28T06:40:36;8.38;;;3.90;;
27408;SDS011;20413;50.782;7.152;2023-02-28T06:43:02;31.38;;;13.98;;
27408;SDS011;20413;50.782;7.152;2023-02-28T06:45:28;16.02;;;7.65;;
27408;SDS011;20413;50.782;7.152;2023-02-28T06:47:54;15.45;;;6.80;;
27408;SDS011;20413;50.782;7.152;2023-02-28T06:50:20;10.60;;;6.95;;
27408;SDS011;20413;50.782;7.152;2023-02-28T06:52:46;9.40;;;6.10;;
27408;SDS011;20413;50.782;7.152;2023-02-28T06:55:13;15.93;;;6.65;;
27408;SDS011;20413;50.782;7.152;2023-02-28T06:57:39;10.43;;;6.85;;
27408;SDS011;20413;50.782;7.152;2023-02-28T07:00:06;12.45;;;7.25;;
27408;SDS011;20413;50.782;7.152;2023-02-28T07:02:38;9.77;;;6.30;;
27408;SDS011;20413;50.782;7.152;2023-02-28T07:05:05;12.10;;;7.53;;
27408;SDS011;20413;50.782;7.152;2023-02-28T07:07:31;10.40;;;6.47;;
27408;SDS011;20413;50.782;7.152;2023-02-28T07:09:58;9.50;;;6.30;;
27408;SDS011;20413;50.782;7.152;2023-02-28T07:12:24;23.23;;;7.72;;
27408;SDS011;20413;50.782;7.152;2023-02-28T07:14:50;10.23;;;7.07;;
27408;SDS011;20413;50.782;7.152;2023-02-28T07:17:16;9.90;;;7.18;;
27408;SDS011;20413;50.782;7.152;2023-02-28T07:19:42;11.45;;;6.47;;
27408;SDS011;20413;50.782;7.152;2023-02-28T07:22:08;11.52;;;7.05;;
27408;SDS011;20413;50.782;7.152;2023-02-28T07:24:34;9.05;;;6.57;;
27408;SDS011;20413;50.782;7.152;2023-02-28T07:27:00;12.32;;;7.28;;
27408;SDS011;20413;50.782;7.152;2023-02-28T07:29:26;9.18;;;6.30;;
27408;SDS011;20413;50.782;7.152;2023-02-28T07:31:52;11.77;;;6.97;;
27408;SDS011;20413;50.782;7.152;2023-02-28T07:34:19;12.93;;;6.57;;
27408;SDS011;20413;50.782;7.152;2023-02-28T07:36:45;10.38;;;6.45;;
27408;SDS011;20413;50.782;7.152;2023-02-28T07:39:11;11.55;;;6.60;;
27408;SDS011;20413;50.782;7.152;2023-02-28T07:41:37;8.77;;;6.15;;
27408;SDS011;20413;50.782;7.152;2023-02-28T07:44:08;12.35;;;6.88;;
27408;SDS011;20413;50.782;7.152;2023-02-28T07:46:35;9.57;;;5.67;;
27408;SDS011;20413;50.782;7.152;2023-02-28T07:49:01;9.63;;;5.85;;
27408;SDS011;20413;50.782;7.152;2023-02-28T07:51:28;11.20;;;5.40;;
27408;SDS011;20413;50.782;7.152;2023-02-28T07:53:54;8.82;;;4.20;;
27408;SDS011;20413;50.782;7.152;2023-02-28T07:56:20;8.38;;;4.65;;
27408;SDS011;20413;50.782;7.152;2023-02-28T07:58:46;7.18;;;3.95;;
27408;SDS011;20413;50.782;7.152;2023-02-28T08:01:12;7.68;;;4.25;;
27408;SDS011;20413;50.782;7.152;2023-02-28T08:03:38;7.93;;;3.97;;
27408;SDS011;20413;50.782;7.152;2023-02-28T08:06:05;5.10;;;3.85;;
27408;SDS011;20413;50.782;7.152;2023-02-28T08:08:31;4.95;;;3.88;;
27408;SDS011;20413;50.782;7.152;2023-02-28T08:11:01;4.97;;;3.30;;
27408;SDS011;20413;50.782;7.152;2023-02-28T08:13:28;5.82;;;3.42;;
27408;SDS011;20413;50.782;7.152;2023-02-28T08:15:54;5.53;;;3.25;;
27408;SDS011;20413;50.782;7.152;2023-02-28T08:18:21;5.95;;;3.38;;
27408;SDS011;20413;50.782;7.152;2023-02-28T08:20:47;4.25;;;3.17;;
27408;SDS011;20413;50.782;7.152;2023-02-28T08:23:13;4.35;;;2.97;;
27408;SDS011;20413;50.782;7.152;2023-02-28T08:25:39;7.22;;;3.53;;
27408;SDS011;20413;50.782;7.152;2023-02-28T08:28:05;6.20;;;3.28;;
27408;SDS011;20413;50.782;7.152;2023-02-28T08:30:31;6.10;;;3.15;;
27408;SDS011;20413;50.782;7.152;2023-02-28T08:32:57;14.25;;;3.05;;
27408;SDS011;20413;50.782;7.152;2023-02-28T08:35:23;4.90;;;2.97;;
27408;SDS011;20413;50.782;7.152;2023-02-28T08:37:50;4.88;;;2.75;;
27408;SDS011;20413;50.782;7.152;2023-02-28T08:40:16;4.45;;;2.60;;
27408;SDS011;20413;50.782;7.152;2023-02-28T08:42:45;5.25;;;2.55;;
27408;SDS011;20413;50.782;7.152;2023-02-28T08:45:12;2.80;;;2.20;;
27408;SDS011;20413;50.782;7.152;2023-02-28T08:47:38;3.97;;;1.90;;
27408;SDS011;20413;50.782;7.152;2023-02-28T08:50:04;2.65;;;1.63;;
27408;SDS011;20413;50.782;7.152;2023-02-28T08:52:30;2.20;;;1.70;;
27408;SDS011;20413;50.782;7.152;2023-02-28T08:54:56;2.17;;;1.67;;
27408;SDS011;20413;50.782;7.152;2023-02-28T08:57:22;2.70;;;1.33;;
27408;SDS011;20413;50.782;7.152;2023-02-28T08:59:51;2.05;;;1.75;;
27408;SDS011;20413;50.782;7.152;2023-02-28T09:02:17;3.13;;;1.73;;
27408;SDS011;20413;50.782;7.152;2023-02-28T09:04:43;1.52;;;1.23;;
27408;SDS011;20413;50.782;7.152;2023-02-28T09:07:10;2.08;;;1.88;;
27408;SDS011;20413;50.782;7.152;2023-02-28T09:09:36;2.42;;;1.40;;
27408;SDS011;20413;50.782;7.152;2023-02-28T09:12:03;2.55;;;1.52;;
27408;SDS011;20413;50.782;7.152;2023-02-28T09:14:29;2.25;;;1.60;;
27408;SDS011;20413;50.782;7.152;2023-02-28T09:16:55;3.38;;;1.40;;
27408;SDS011;20413;50.782;7.152;2023-02-28T09:19:21;2.65;;;1.45;;
27408;SDS011;20413;50.782;7.152;2023-02-28T09:21:47;2.05;;;1.70;;
27408;SDS011;20413;50.782;7.152;2023-02-28T09:24:13;2.78;;;2.08;;
27408;SDS011;20413;50.782;7.152;2023-02-28T09:26:40;2.65;;;1.40;;
27408;SDS011;20413;50.782;7.152;2023-02-28T09:29:06;3.53;;;2.42;;
27408;SDS011;20413;50.782;7.152;2023-02-28T09:31:32;2.42;;;1.95;;
27408;SDS011;20413;50.782;7.152;2023-02-28T09:33:58;7.25;;;3.30;;
27408;SDS011;20413;50.782;7.152;2023-02-28T09:36:25;2.70;;;1.88;;
27408;SDS011;20413;50.782;7.152;2023-02-28T09:41:20;2.10;;;1.70;;
27408;SDS011;20413;50.782;7.152;2023-02-28T09:43:47;3.63;;;2.10;;
27408;SDS011;20413;50.782;7.152;2023-02-28T09:48:44;8.85;;;3.13;;
27408;SDS011;20413;50.782;7.152;2023-02-28T09:51:33;2.25;;;1.23;;
27408;SDS011;20413;50.782;7.152;2023-02-28T09:54:00;8.20;;;4.00;;
27408;SDS011;20413;50.782;7.152;2023-02-28T09:56:45;5.22;;;2.72;;
27408;SDS011;20413;50.782;7.152;2023-02-28T10:01:55;2.63;;;1.85;;
27408;SDS011;20413;50.782;7.152;2023-02-28T10:06:50;3.28;;;2.72;;
27408;SDS011;20413;50.782;7.152;2023-02-28T10:11:47;5.35;;;2.85;;
27408;SDS011;20413;50.782;7.152;2023-02-28T10:16:45;1.90;;;1.35;;
27408;SDS011;20413;50.782;7.152;2023-02-28T10:19:16;4.18;;;2.28;;
27408;SDS011;20413;50.782;7.152;2023-02-28T10:22:01;12.82;;;4.20;;
27408;SDS011;20413;50.782;7.152;2023-02-28T10:24:33;10.15;;;2.70;;
27408;SDS011;20413;50.782;7.152;2023-02-28T10:27:01;4.00;;;2.05;;
27408;SDS011;20413;50.782;7.152;2023-02-28T10:29:28;3.57;;;1.57;;
27408;SDS011;20413;50.782;7.152;2023-02-28T10:31:58;2.00;;;1.33;;
27408;SDS011;20413;50.782;7.152;2023-02-28T10:34:25;2.03;;;1.80;;
27408;SDS011;20413;50.782;7.152;2023-02-28T10:36:51;1.83;;;1.73;;
27408;SDS011;20413;50.782;7.152;2023-02-28T10:42:03;2.03;;;1.50;;
27408;SDS011;20413;50.782;7.152;2023-02-28T10:44:29;1.38;;;1.27;;
27408;SDS011;20413;50.782;7.152;2023-02-28T10:46:55;2.50;;;1.48;;
27408;SDS011;20413;50.782;7.152;2023-02-28T10:51:49;3.50;;;1.80;;
27408;SDS011;20413;50.782;7.152;2023-02-28T10:54:17;2.30;;;1.33;;
27408;SDS011;20413;50.782;7.152;2023-02-28T10:56:44;1.60;;;1.50;;
27408;SDS011;20413;50.782;7.152;2023-02-28T10:59:27;1.92;;;1.40;;
27408;SDS011;20413;50.782;7.152;2023-02-28T11:01:53;3.13;;;1.52;;
27408;SDS011;20413;50.782;7.152;2023-02-28T11:06:58;2.20;;;1.50;;
27408;SDS011;20413;50.782;7.152;2023-02-28T11:09:26;5.35;;;1.90;;
27408;SDS011;20413;50.782;7.152;2023-02-28T11:11:54;1.70;;;1.60;;
27408;SDS011;20413;50.782;7.152;2023-02-28T11:14:30;1.73;;;1.33;;
27408;SDS011;20413;50.782;7.152;2023-02-28T11:17:03;1.55;;;1.30;;
27408;SDS011;20413;50.782;7.152;2023-02-28T11:19:43;2.08;;;1.65;;
27408;SDS011;20413;50.782;7.152;2023-02-28T11:22:16;2.78;;;1.70;;
27408;SDS011;20413;50.782;7.152;2023-02-28T11:24:44;3.40;;;2.20;;
27408;SDS011;20413;50.782;7.152;2023-02-28T11:30:34;2.10;;;1.75;;
27408;SDS011;20413;50.782;7.152;2023-02-28T11:32:59;3.35;;;1.60;;
27408;SDS011;20413;50.782;7.152;2023-02-28T11:37:51;3.88;;;1.73;;
27408;SDS011;20413;50.782;7.152;2023-02-28T11:40:18;2.13;;;1.38;;
27408;SDS011;20413;50.782;7.152;2023-02-28T11:45:29;4.07;;;1.55;;
27408;SDS011;20413;50.782;7.152;2023-02-28T11:53:22;5.88;;;1.80;;
27408;SDS011;20413;50.782;7.152;2023-02-28T11:55:51;3.55;;;1.70;;
27408;SDS011;20413;50.782;7.152;2023-02-28T12:01:07;2.85;;;1.80;;
27408;SDS011;20413;50.782;7.152;2023-02-28T12:03:57;2.53;;;1.83;;
27408;SDS011;20413;50.782;7.152;2023-02-28T12:06:28;2.85;;;2.00;;
27408;SDS011;20413;50.782;7.152;2023-02-28T12:27:09;2.35;;;2.10;;
27408;SDS011;20413;50.782;7.152;2023-02-28T12:32:25;2.55;;;1.77;;
27408;SDS011;20413;50.782;7.152;2023-02-28T12:34:55;2.05;;;1.80;;
27408;SDS011;20413;50.782;7.152;2023-02-28T12:37:28;3.13;;;2.10;;
27408;SDS011;20413;50.782;7.152;2023-02-28T12:39:59;2.40;;;1.90;;
27408;SDS011;20413;50.782;7.152;2023-02-28T12:42:27;2.53;;;1.85;;
27408;SDS011;20413;50.782;7.152;2023-02-28T12:47:39;2.83;;;1.80;;
27408;SDS011;20413;50.782;7.152;2023-02-28T12:50:07;1.85;;;1.52;;
27408;SDS011;20413;50.782;7.152;2023-02-28T12:55:39;2.05;;;1.58;;
27408;SDS011;20413;50.782;7.152;2023-02-28T13:00:22;2.75;;;1.52;;
27408;SDS011;20413;50.782;7.152;2023-02-28T13:03:00;1.98;;;1.63;;
27408;SDS011;20413;50.782;7.152;2023-02-28T13:11:01;2.30;;;1.50;;
27408;SDS011;20413;50.782;7.152;2023-02-28T13:13:28;1.83;;;1.30;;
27408;SDS011;20413;50.782;7.152;2023-02-28T13:18:28;2.55;;;1.58;;
27408;SDS011;20413;50.782;7.152;2023-02-28T13:20:55;3.40;;;2.20;;
27408;SDS011;20413;50.782;7.152;2023-02-28T13:23:38;2.97;;;1.85;;
27408;SDS011;20413;50.782;7.152;2023-02-28T13:26:04;2.58;;;1.77;;
27408;SDS011;20413;50.782;7.152;2023-02-28T13:31:15;2.90;;;2.00;;
27408;SDS011;20413;50.782;7.152;2023-02-28T13:44:01;3.05;;;2.25;;
27408;SDS011;20413;50.782;7.152;2023-02-28T13:46:28;2.08;;;1.92;;
27408;SDS011;20413;50.782;7.152;2023-02-28T13:48:54;2.35;;;1.83;;
27408;SDS011;20413;50.782;7.152;2023-02-28T13:54:06;2.10;;;1.90;;
27408;SDS011;20413;50.782;7.152;2023-02-28T13:56:51;2.28;;;1.80;;
27408;SDS011;20413;50.782;7.152;2023-02-28T13:59:34;2.85;;;2.30;;
27408;SDS011;20413;50.782;7.152;2023-02-28T14:07:04;5.22;;;1.95;;
27408;SDS011;20413;50.782;7.152;2023-02-28T14:09:34;2.00;;;1.75;;
27408;SDS011;20413;50.782;7.152;2023-02-28T14:17:13;2.05;;;1.92;;
27408;SDS011;20413;50.782;7.152;2023-02-28T14:19:40;3.08;;;2.28;;
27408;SDS011;20413;50.782;7.152;2023-02-28T14:22:17;3.58;;;2.63;;
27408;SDS011;20413;50.782;7.152;2023-02-28T14:24:51;2.53;;;2.33;;
27408;SDS011;20413;50.782;7.152;2023-02-28T14:30:15;3.20;;;2.03;;
27408;SDS011;20413;50.782;7.152;2023-02-28T14:35:21;2.95;;;2.55;;
27408;SDS011;20413;50.782;7.152;2023-02-28T14:37:50;2.90;;;2.40;;
27408;SDS011;20413;50.782;7.152;2023-02-28T14:42:55;2.78;;;2.40;;
27408;SDS011;20413;50.782;7.152;2023-02-28T14:45:22;6.85;;;2.85;;
27408;SDS011;20413;50.782;7.152;2023-02-28T14:47:49;2.58;;;2.38;;
27408;SDS011;20413;50.782;7.152;2023-02-28T14:50:20;4.75;;;2.60;;
27408;SDS011;20413;50.782;7.152;2023-02-28T14:52:47;2.80;;;2.50;;
27408;SDS011;20413;50.782;7.152;2023-02-28T14:55:14;3.47;;;2.70;;
27408;SDS011;20413;50.782;7.152;2023-02-28T14:57:42;3.28;;;2.40;;
27408;SDS011;20413;50.782;7.152;2023-02-28T15:02:47;3.25;;;2.30;;
27408;SDS011;20413;50.782;7.152;2023-02-28T15:07:43;3.05;;;2.38;;
27408;SDS011;20413;50.782;7.152;2023-02-28T15:10:20;4.18;;;2.60;;
27408;SDS011;20413;50.782;7.152;2023-02-28T15:13:09;3.75;;;3.08;;
27408;SDS011;20413;50.782;7.152;2023-02-28T15:18:10;3.53;;;3.05;;
27408;SDS011;20413;50.782;7.152;2023-02-28T15:20:40;3.88;;;2.50;;
27408;SDS011;20413;50.782;7.152;2023-02-28T15:23:07;4.47;;;2.85;;
27408;SDS011;20413;50.782;7.152;2023-02-28T15:25:33;5.15;;;2.85;;
27408;SDS011;20413;50.782;7.152;2023-02-28T15:27:59;5.18;;;3.22;;
27408;SDS011;20413;50.782;7.152;2023-02-28T15:30:27;3.22;;;2.40;;
27408;SDS011;20413;50.782;7.152;2023-02-28T15:33:04;4.28;;;3.28;;
27408;SDS011;20413;50.782;7.152;2023-02-28T15:35:33;3.90;;;3.30;;
27408;SDS011;20413;50.782;7.152;2023-02-28T15:40:38;14.40;;;7.30;;
27408;SDS011;20413;50.782;7.152;2023-02-28T15:43:16;5.40;;;2.97;;
27408;SDS011;20413;50.782;7.152;2023-02-28T15:48:56;2.78;;;2.55;;
27408;SDS011;20413;50.782;7.152;2023-02-28T15:51:24;3.53;;;2.92;;
27408;SDS011;20413;50.782;7.152;2023-02-28T15:56:22;3.65;;;3.03;;
27408;SDS011;20413;50.782;7.152;2023-02-28T15:58:48;3.80;;;2.97;;
27408;SDS011;20413;50.782;7.152;2023-02-28T16:03:44;3.70;;;2.75;;
27408;SDS011;20413;50.782;7.152;2023-02-28T16:08:52;3.92;;;3.10;;
27408;SDS011;20413;50.782;7.152;2023-02-28T16:11:18;4.18;;;3.25;;
27408;SDS011;20413;50.782;7.152;2023-02-28T16:13:48;4.05;;;2.78;;
27408;SDS011;20413;50.782;7.152;2023-02-28T16:16:16;3.75;;;2.80;;
27408;SDS011;20413;50.782;7.152;2023-02-28T16:18:42;3.55;;;3.00;;
27408;SDS011;20413;50.782;7.152;2023-02-28T16:21:09;3.83;;;3.10;;
27408;SDS011;20413;50.782;7.152;2023-02-28T16:23:38;3.00;;;2.67;;
27408;SDS011;20413;50.782;7.152;2023-02-28T16:26:07;4.20;;;3.03;;
27408;SDS011;20413;50.782;7.152;2023-02-28T16:28:34;2.88;;;2.58;;
27408;SDS011;20413;50.782;7.152;2023-02-28T16:31:01;3.22;;;2.85;;
27408;SDS011;20413;50.782;7.152;2023-02-28T16:33:28;4.22;;;2.80;;
27408;SDS011;20413;50.782;7.152;2023-02-28T16:35:54;5.43;;;2.88;;
27408;SDS011;20413;50.782;7.152;2023-02-28T16:38:20;7.10;;;3.90;;
27408;SDS011;20413;50.782;7.152;2023-02-28T16:40:48;4.20;;;3.50;;
27408;SDS011;20413;50.782;7.152;2023-02-28T16:43:16;5.30;;;3.05;;
27408;SDS011;20413;50.782;7.152;2023-02-28T16:45:44;3.83;;;3.38;;
27408;SDS011;20413;50.782;7.152;2023-02-28T16:48:16;6.00;;;4.30;;
27408;SDS011;20413;50.782;7.152;2023-02-28T16:50:42;5.60;;;3.67;;
27408;SDS011;20413;50.782;7.152;2023-02-28T16:53:09;6.85;;;3.90;;
27408;SDS011;20413;50.782;7.152;2023-02-28T16:55:35;9.43;;;5.93;;
27408;SDS011;20413;50.782;7.152;2023-02-28T16:58:01;6.47;;;4.20;;
27408;SDS011;20413;50.782;7.152;2023-02-28T17:00:28;9.30;;;3.90;;
27408;SDS011;20413;50.782;7.152;2023-02-28T17:02:55;6.38;;;3.70;;
27408;SDS011;20413;50.782;7.152;2023-02-28T17:05:21;7.22;;;4.15;;
27408;SDS011;20413;50.782;7.152;2023-02-28T17:07:47;7.18;;;4.40;;
27408;SDS011;20413;50.782;7.152;2023-02-28T17:10:15;7.55;;;5.00;;
27408;SDS011;20413;50.782;7.152;2023-02-28T17:12:42;6.82;;;4.68;;
27408;SDS011;20413;50.782;7.152;2023-02-28T17:15:09;8.27;;;4.97;;
27408;SDS011;20413;50.782;7.152;2023-02-28T17:17:35;8.23;;;5.55;;
27408;SDS011;20413;50.782;7.152;2023-02-28T17:20:02;9.48;;;6.03;;
27408;SDS011;20413;50.782;7.152;2023-02-28T17:22:28;7.50;;;5.03;;
27408;SDS011;20413;50.782;7.152;2023-02-28T17:24:54;6.63;;;4.30;;
27408;SDS011;20413;50.782;7.152;2023-02-28T17:27:23;6.65;;;4.05;;
27408;SDS011;20413;50.782;7.152;2023-02-28T17:29:50;6.68;;;4.32;;
27408;SDS011;20413;50.782;7.152;2023-02-28T17:32:16;6.78;;;3.90;;
27408;SDS011;20413;50.782;7.152;2023-02-28T17:34:43;6.22;;;3.63;;
27408;SDS011;20413;50.782;7.152;2023-02-28T17:37:10;4.95;;;3.75;;
27408;SDS011;20413;50.782;7.152;2023-02-28T17:39:36;5.70;;;4.38;;
27408;SDS011;20413;50.782;7.152;2023-02-28T17:42:02;7.13;;;5.13;;
27408;SDS011;20413;50.782;7.152;2023-02-28T17:44:28;7.68;;;4.88;;